NCAR-RAP Real-Time Weather Data

Output produced by METARs form (23 June 2018  19:31 UTC)
found at http://weather.rap.ucar.edu/surface/
 
RJTT 231916Z 18008KT 9999 FEW008 BKN013 BKN150 21/19 Q1004 RMK 1ST008 5CU013 7AC150 A2966
RJTT 231900Z 18007KT 9999 -RA FEW008 SCT015 BKN150 21/19 Q1004 NOSIG RMK 1ST008 3SC015 7AS150 A2965
RJTT 231830Z 20007KT 9999 -RA FEW010 OVC120 21/19 Q1004 TEMPO FEW008 BKN012
RJTT 231800Z 20005KT 9999 FEW010 BKN140 21/19 Q1004 TEMPO FEW008 BKN012 RMK 1ST010 7AC140 A2965
RJTT 231730Z 20006KT 9999 FEW010 BKN200 21/19 Q1004 NOSIG RMK 1ST010 7AC200 A2965
RJTT 231700Z 20008KT 9999 FEW010 BKN150 21/19 Q1003 NOSIG RMK 1ST010 7AC150 A2964
RJTT 231630Z 19009KT 9999 FEW008 BKN150 20/19 Q1004 NOSIG RMK 1ST008 7AC150 A2965
RJTT 231600Z 20009KT 9999 FEW008 BKN170 BKN/// 20/19 Q1004 NOSIG
RJTT 231530Z 19009KT 9999 FEW008 SCT150 BKN/// 20/18 Q1004 NOSIG
RJTT 231500Z 20009KT 9999 FEW008 SCT150 BKN/// 20/19 Q1004 NOSIG RMK 1ST008 3AC150 A2967
RJTT 231430Z 20008KT 9999 FEW008 SCT150 BKN/// 20/19 Q1004 NOSIG
RJTT 231400Z 20006KT 6000 FEW008 BKN160 BKN/// 20/19 Q1004 NOSIG RMK 2ST008 6AC160 A2966
RJTT 231330Z 19005KT 7000 FEW008 BKN170 BKN/// 20/19 Q1004 NOSIG RMK 1ST008 5AC170 A2966
RJTT 231300Z 24004KT 7000 FEW008 BKN/// 20/19 Q1004 BECMG 20007KT RMK 1ST008 A2966
RJTT 231230Z 26004KT 7000 FEW008 BKN080 BKN/// 20/19 Q1004 BECMG 20007KT
RJTT 231200Z VRB02KT 7000 FEW008 BKN080 20/19 Q1004 NOSIG RMK 1ST008 7AC080 A2966
RJTT 231130Z VRB02KT 7000 FEW008 SCT018 BKN080 20/18 Q1003 NOSIG RMK 1ST008 3SC018 6AC080 A2964
RJTT 231100Z 13002KT 7000 FEW008 SCT018 BKN080 19/19 Q1003 NOSIG RMK 1ST008 4SC018 6AC080 A2963
RJTT 231039Z VRB01KT 7000 -RA FEW008 SCT010 BKN018 19/18 Q1003 RMK 1ST008 4ST010 7SC018 A2964
RJTT 231030Z VRB02KT 6000 -RA FEW008 SCT010 BKN012 19/18 Q1004 BECMG 03006KT FEW012 BKN020
RJTT 231021Z 02003KT 340V060 4500 -RA BR FEW008 SCT010 BKN014 19/18 Q1004 RMK 1ST008 4ST010 6SC014 A2965
RJTT 231012Z 03005KT 5000 -RA BR FEW008 SCT010 BKN015 20/18 Q1004 RMK 1ST008 3ST010 6SC015 A2965
RJTT 231000Z 03007KT 7000 -RA FEW008 BKN015 BKN040 20/18 Q1003 TEMPO FEW008 BKN012 RMK 1ST008 5SC015 6SC040 A2964
RJTT 230930Z 05006KT 7000 -RA FEW008 BKN040 BKN060 20/18 Q1003 NOSIG RMK 1ST008 6SC040 7SC060 A2964
RJTT 230910Z 36008KT 7000 -RA FEW005 SCT008 BKN040 20/19 Q1003 RMK 1ST005 3ST008 5SC040 A2964
RJTT 230900Z 01007KT 5000 -RA BR FEW005 BKN040 BKN060 20/19 Q1004 NOSIG RMK 1ST005 5SC040 7SC060 A2965
RJTT 230839Z 02003KT 350V060 4000 -RA BR FEW002 SCT008 BKN030 20/19 Q1004 RMK 1ST002 3ST008 5SC030 A2965
RJTT 230830Z 05004KT 010V080 4000 -RA BR FEW002 SCT004 BKN008 20/19 Q1003 BECMG 8000 NSW FEW008 BKN012
RJTT 230810Z 06003KT 020V090 3000 R34L/P2000N R22/2000N R34R/P2000N R23/P2000N RA BR FEW003 BKN005 BKN015 19/19 Q1003 RMK 1ST003 5ST005 6SC015 A2964
RJTT 230800Z 06003KT 020V090 3000 RA BR FEW004 SCT006 BKN030 19/19 Q1003 BECMG 36008KT RMK 1ST004 3ST006 5SC030 A2964 MOD TURB OBS AT 0752Z COLOR BTN 13000FT AND 11000FT IN DES BY E190
RJTT 230741Z VRB02KT 3500 RA BR FEW005 SCT008 BKN040 19/19 Q1004 RMK 1ST005 3ST008 6SC040 A2965 MOD TURB OBS AT 0735Z 15NM S COLOR BTN 11000FT AND 8000FT BY B763
RJTT 230730Z VRB02KT 3000 R34L/2000N R22/2000N R34R/P2000N R23/1600VP2000D RA BR FEW005 SCT030 BKN040 19/19 Q1004 BECMG 36008KT
RJTT 230700Z 10006KT 4000 RA BR FEW006 SCT015 BKN050 20/18 Q1004 BECMG 36008KT RMK 1ST006 3CU015 7SC050 A2965
RJTT 230646Z 13005KT 3500 RA BR FEW006 SCT015 BKN050 20/19 Q1004 RMK 1ST006 4CU015 7SC050 A2966
RJTT 230630Z 16004KT 080V230 4000 -RA BR FEW008 SCT015 BKN050 21/19 Q1004 NOSIG RMK 1ST008 4CU015 7SC050 A2967
RJTT 230623Z 13003KT 060V230 4500 -RA BR FEW008 SCT015 BKN050 21/19 Q1004 RMK 1ST008 4CU015 7SC050 A2967
RJTT 230613Z VRB02KT 5000 -RA BR FEW008 SCT015 BKN050 21/19 Q1004 RMK 1ST008 3CU015 7SC050 A2967
RJTT 230600Z 18003KT 100V250 4500 RA BR FEW008 BKN050 21/19 Q1004 NOSIG RMK 1ST008 7SC050 A2966
RJTT 230538Z 20005KT 150V230 5000 -RA BR FEW010 BKN060 21/19 Q1005 RMK 1CU010 7SC060 A2968
RJTT 230530Z 19006KT 150V230 8000 -RA FEW010 BKN080 OVC110 22/20 Q1004 TEMPO 4000 -RA BR
RJTT 230500Z 21008KT 7000 -RA FEW008 BKN080 OVC110 21/20 Q1005 TEMPO 4000 -RA BR RMK 1ST008 6AC080 8AS110 A2969
RJTT 230447Z 19007KT 160V230 6000 -RA FEW007 BKN080 OVC110 22/20 Q1005 RMK 1ST007 5AC080 8AS110 A2969 MOD TURB OBS AT 0425Z 10NM S UTIBO BTN FL150 AND 10000FT IN DES BY B767 P/FR
RJTT 230430Z 17009KT 5000 -RA BR FEW007 SCT080 OVC110 21/19 Q1005 TEMPO 4000 -RA BR
RJTT 230407Z 22011KT 5000 -RA BR FEW010 SCT020 OVC110 22/21 Q1007 RMK 1ST010 3SC020 8AS110 A2975 P/RR
RJTT 230400Z 13005KT 090V220 5000 -RA BR FEW010 OVC110 22/20 Q1005 TEMPO 4000 -RA BR RMK 1ST010 8AS110 A2970
RJTT 230330Z 08011KT 5000 -RA BR FEW010 SCT020 BKN100 22/20 Q1004 TEMPO 4000 -RA BR
RJTT 230313Z 08010KT 5000 -RA BR FEW010 SCT020 BKN030 22/21 Q1005 RMK 1ST010 3CU020 6SC030 A2968 MOD TURB OBS AT 0252Z AROUND SEKIYADO BTN 8000FT AND FL150 IN CMB BY B777 AND OBS AT 0305Z 10NM S COLOR BTN 7000FT AND 11000FT IN CMB BY B789 P/FR
RJTT 230300Z 10009KT 6000 -RA FEW010 SCT020 BKN030 22/20 Q1006 BECMG 18010KT
RJTT 230230Z 12005KT 7000 FEW010 SCT015 BKN030 22/20 Q1008 BECMG 18010KT RMK 1ST010 4CU015 6SC030 A2977 MOD TURB OBS AT 0212Z OVER COLOR 11000FT BY B738
RJTT 230200Z 11005KT 6000 FEW015 SCT025 BKN160 22/20 Q1008 BECMG 18010KT
RJTT 230130Z 07006KT 6000 FEW015 SCT025 BKN160 23/20 Q1008 NOSIG RMK 1CU015 3SC025 6AC160 A2977 MOD TURB OBS AT 0118Z COLOR 11000FT BY A346
RJTT 230100Z 05005KT 6000 FEW010 SCT020 BKN/// 23/20 Q1007 BECMG TL0130 08006KT RMK 1ST010 3CU020 A2976
RJTT 230030Z 03003KT 6000 FEW010 SCT015 BKN/// 22/19 Q1008 BECMG 08006KT RMK 1ST010 3ST015 A2978
RJTT 230015Z VRB02KT 5000 BR FEW010 SCT015 BKN/// 22/20 Q1008 RMK 1ST010 3ST015 A2978
RJTT 230000Z 01003KT 4500 BR FEW010 SCT015 BKN/// 22/19 Q1008 NOSIG RMK 1ST010 3ST015 A2978 MOD TURB OBS AT 2330Z 20NM SE JYOSO BTN 11000FT AND 13000FT IN CMB BY A320 AND OBS AT 2343Z 5NM N OF UTIBO BTN FL150 AND 12000FT IN DES BY B738
RJTT 222330Z 01006KT 4500 BR FEW010 SCT015 BKN/// 22/20 Q1008 BECMG 08006KT
RJTT 222300Z 04006KT 5000 BR FEW010 SCT015 BKN/// 22/20 Q1009 BECMG 08006KT
RJTT 222230Z 04007KT 5000 BR FEW010 SCT015 BKN/// 22/20 Q1008 BECMG 08006KT
RJTT 222200Z 05006KT 6000 FEW010 BKN015 BKN/// 21/20 Q1009 NOSIG RMK 1ST010 5ST015 A2979
RJTT 222130Z 05003KT 6000 FEW008 BKN010 BKN/// 21/20 Q1009 BECMG FEW010 BKN015
RJTT 222100Z 11003KT 070V130 6000 FEW008 BKN010 BKN/// 21/20 Q1008 BECMG FEW010 BKN015 RMK 1ST008 5ST010 A2979
RJTT 222030Z 10003KT 070V130 6000 FEW010 BKN/// 21/20 Q1008 NOSIG RMK 1ST010 A2979
RJTT 222000Z 09004KT 7000 FEW020 BKN/// 21/20 Q1008 NOSIG
RJTT 221930Z 10002KT 7000 FEW020 BKN/// 21/20 Q1008 NOSIG
RJTT 221900Z 13005KT 9000 FEW020 BKN/// 21/20 Q1008 NOSIG RMK 1CU020 A2978
RJTT 221830Z 14006KT 9000 FEW015 BKN/// 21/20 Q1008 NOSIG
RJTT 221800Z 14003KT 9999 FEW015 BKN/// 21/20 Q1008 NOSIG RMK 1ST015 A2979
RJTT 221730Z 18002KT 9999 FEW015 BKN/// 22/20 Q1008 BECMG 05005KT
RJTT 221700Z 17003KT 9999 FEW015 BKN/// 21/19 Q1008 NOSIG RMK 1ST015 A2978
RJTT 221630Z 17005KT 9999 FEW015 BKN/// 21/19 Q1008 NOSIG
RJTT 221600Z 16004KT 9999 FEW015 BKN/// 21/20 Q1008 NOSIG RMK 1ST015 A2979
RJTT 221530Z 14003KT 100V180 9999 FEW015 BKN/// 22/20 Q1008 NOSIG
RJTT 221500Z 14003KT 070V190 9999 FEW015 SCT/// 22/20 Q1008 NOSIG RMK 1ST015 A2978
RJTT 221430Z 18007KT 9999 FEW015 SCT/// 22/19 Q1008 NOSIG
RJTT 221400Z 18006KT 9999 FEW015 BKN/// 23/20 Q1008 NOSIG RMK 1ST015 A2979
RJTT 221330Z 19007KT 9999 FEW015 SCT/// 23/19 Q1008 NOSIG
RJTT 221300Z 20006KT 9999 FEW010 SCT/// 23/20 Q1008 NOSIG RMK 1ST010 A2979
RJTT 221230Z 17011KT 9999 FEW010 SCT/// 23/20 Q1008 NOSIG
RJTT 221200Z 18011KT CAVOK 23/19 Q1008 NOSIG RMK A2979
RJTT 221130Z 20011KT CAVOK 24/18 Q1008 NOSIG RMK A2978
RJTT 221100Z 19012KT 160V230 CAVOK 24/18 Q1008 NOSIG RMK A2977
RJTT 221030Z 19012KT CAVOK 24/18 Q1008 NOSIG RMK A2977
RJTT 221000Z 18011KT 9000 NSC 24/20 Q1007 NOSIG RMK A2976
RJTT 220930Z 17010KT 9000 FEW030 SCT/// 25/20 Q1007 NOSIG
RJTT 220900Z 18012KT 9999 FEW030 BKN/// 25/20 Q1007 NOSIG RMK 1CU030 A2974
RJTT 220830Z 19012KT 9999 FEW030 BKN/// 26/20 Q1007 NOSIG
RJTT 220800Z 18013KT 9999 FEW020 BKN/// 26/21 Q1007 NOSIG RMK 1CU020 A2974
RJTT 220730Z 18013KT 9999 FEW020 BKN/// 26/21 Q1007 NOSIG
RJTT 220700Z 18013KT 9999 FEW020 BKN/// 26/21 Q1007 NOSIG
RJTT 220630Z 17014KT 9999 FEW020 BKN/// 26/21 Q1007 NOSIG
RJTT 220600Z 13011KT 9999 FEW030 BKN/// 26/20 Q1007 NOSIG RMK 1CU030 A2974
RJTT 220530Z 13010KT 9999 FEW030 BKN/// 26/20 Q1007 NOSIG
RJTT 220500Z 12012KT 9999 FEW025 BKN/// 25/20 Q1007 BECMG 18012KT RMK 1CU025 A2974
RJTT 220430Z 11012KT 9999 FEW025 BKN/// 25/20 Q1007 NOSIG
RJTT 220400Z 11011KT 9999 FEW025 BKN/// 26/21 Q1007 NOSIG RMK 1CU025 A2974
RJTT 220330Z 09006KT 9999 FEW020 BKN/// 26/21 Q1007 BECMG 16010KT
RJTT 220300Z VRB02KT 9999 FEW020 BKN/// 25/20 Q1007 BECMG 12008KT RMK 1CU020 A2975
RJTT 220230Z 07003KT 9999 FEW020 BKN/// 25/20 Q1007 NOSIG
RJTT 220200Z VRB02KT 9999 FEW020 BKN/// 24/20 Q1008 NOSIG RMK 1CU020 A2977
RJTT 220130Z 08004KT 9999 FEW015 BKN/// 24/21 Q1008 NOSIG
RJTT 220100Z 08005KT 8000 FEW015 BKN/// 24/21 Q1007 NOSIG RMK 1CU015 A2976
RJTT 220030Z 08004KT 8000 FEW015 BKN/// 24/21 Q1007 NOSIG
RJTT 220000Z 10005KT 9999 FEW015 BKN025 BKN/// 23/21 Q1008 NOSIG
RJTT 212330Z 10005KT 080V140 9999 FEW015 SCT020 BKN/// 24/19 Q1007 NOSIG RMK 1CU015 4CU020 A2975
RJTT 212300Z 06003KT 9999 FEW020 SCT/// 24/18 Q1007 BECMG TL0000 08006KT
RJTT 212230Z 36005KT 9999 FEW025 SCT/// 23/18 Q1007 NOSIG RMK 1CU025 A2976
RJTT 212200Z 35007KT 9999 FEW025 BKN/// 23/18 Q1007 NOSIG
RJTT 212130Z 02003KT 350V060 8000 BR FEW015 BKN/// 22/20 Q1007 NOSIG
RJTT 212100Z VRB01KT 6000 FEW015 BKN/// 22/21 Q1007 NOSIG RMK 1CU015 A2974
RJTT 212049Z VRB02KT 5000 BR FEW015 BKN/// 21/20 Q1007 RMK 1CU015 A2974
RJTT 212030Z 32003KT 4500 BR FEW015 BKN/// 21/21 Q1007 BECMG TL2100 6000 NSW
RJTT 212000Z 00000KT 4500 BR FEW020 BKN/// 21/20 Q1006 BECMG TL2100 6000 NSW RMK 1CU020 A2973
RJTT 211930Z VRB01KT 4500 BR FEW020 SCT/// 21/20 Q1006 BECMG 6000 NSW
RJTT 211914Z VRB01KT 4500 BR FEW020 SCT/// 20/20 Q1006 RMK 1CU020 A2971
RJTT 211900Z 32002KT 6000 FEW020 SCT/// 21/20 Q1006 NOSIG RMK 1CU020 A2971
RJTT 211830Z 32003KT 7000 FEW015 21/20 Q1005 NOSIG RMK 1CU015 A2970
RJTT 211800Z 31004KT 8000 FEW015 21/20 Q1005 NOSIG RMK 1CU015 A2969
RJTT 211730Z 30004KT 9000 FEW015 21/20 Q1005 NOSIG RMK 1CU015 A2969
RJTT 211700Z 28004KT 9999 FEW015 21/20 Q1005 NOSIG RMK 1CU015 A2968
RJTT 211630Z 29003KT 9999 FEW015 21/20 Q1004 NOSIG RMK 1CU015 A2967
RJTT 211600Z 29004KT CAVOK 22/20 Q1004 NOSIG RMK A2966
RJTT 211530Z 31005KT 9999 FEW020 SCT/// 22/20 Q1004 NOSIG
RJTT 211500Z 29004KT 9999 FEW020 BKN/// 21/20 Q1004 NOSIG RMK 1CU020 A2966
RJTT 211430Z 26004KT 9999 FEW020 BKN/// 21/20 Q1004 NOSIG RMK 1CU020 A2967
RJTT 211400Z 27003KT 9999 FEW020 BKN/// 21/19 Q1004 NOSIG RMK 1CU020 A2966
RJTT 211330Z 29003KT 9999 FEW020 BKN/// 22/19 Q1004 NOSIG RMK 1CU020 A2965
RJTT 211300Z 26003KT 9999 FEW020 BKN/// 22/19 Q1004 NOSIG RMK 1CU020 A2965
RJTT 211230Z VRB02KT 9999 FEW020 BKN/// 22/19 Q1003 BECMG 34005KT
RJTT 211200Z 17005KT 9999 FEW020 SCT/// 22/20 Q1004 BECMG TL1300 26005KT RMK 1CU020 A2965
RJTT 211130Z 23004KT 9999 FEW020 BKN/// 23/19 Q1003 BECMG TL1200 26005KT
RJTT 211100Z 23005KT 9999 FEW020 BKN/// 23/19 Q1003 BECMG TL1200 28005KT
RJTT 211030Z 24008KT 9999 FEW020 BKN/// 23/19 Q1003 BECMG TL1200 28005KT
RJTT 211000Z 23010KT 9999 FEW020 BKN/// 24/19 Q1002 BECMG 28005KT RMK 1CU020 A2961
RJTT 210930Z 22010KT 170V250 9999 FEW020 BKN/// 24/19 Q1002 NOSIG RMK 1CU020 A2959
RJTT 210900Z 20010KT 160V230 9999 FEW015 BKN/// 24/20 Q1002 NOSIG RMK 1CU015 A2959
RJTT 210830Z 19009KT 9999 FEW015 BKN/// 24/20 Q1001 NOSIG
RJTT 210800Z 19009KT 9999 FEW015 SCT200 BKN/// 24/20 Q1001 NOSIG